Time;durP1;ratioP1;P1;durP2;ratioP2;P2;SDS_P1;SDS_P2;PMS_P1;PMS_P2;Temp;Humidity;BMP_temperature;BMP_pressure;BME280_temperature;BME280_humidity;BME280_pressure;Samples;Min_cycle;Max_cycle;Signal;HPM_P1;HPM_P2
2023/07/15 00:01:19;;;;;;;3.15;2.03;;;;;;;18.49;85.21;95450.44;5039571;28;25072;-77
2023/07/15 00:03:46;;;;;;;3.28;1.80;;;;;;;18.53;85.24;95454.41;5047436;28;24443;-77
2023/07/15 00:06:12;;;;;;;3.72;2.33;;;;;;;18.54;84.96;95450.81;5045901;28;24456;-77
2023/07/15 00:08:39;;;;;;;3.42;2.13;;;;;;;18.57;84.37;95452.28;5046553;28;24431;-77
2023/07/15 00:11:06;;;;;;;6.40;2.00;;;;;;;18.59;85.52;95453.78;5051816;28;24916;-78
2023/07/15 00:13:33;;;;;;;2.93;2.07;;;;;;;18.63;85.18;95451.69;5049918;28;24442;-78
2023/07/15 00:16:02;;;;;;;6.25;2.20;;;;;;;18.59;85.67;95445.91;5047586;28;24427;-78
2023/07/15 00:18:28;;;;;;;2.23;2.03;;;;;;;18.46;84.01;95450.72;5049289;28;24435;-78
2023/07/15 00:20:55;;;;;;;3.53;2.13;;;;;;;18.32;84.28;95456.53;5049512;28;24438;-78
2023/07/15 00:23:23;;;;;;;3.08;2.17;;;;;;;18.24;84.80;95453.84;5044457;28;24495;-78
2023/07/15 00:25:51;;;;;;;4.70;2.13;;;;;;;18.20;85.75;95455.13;5048522;28;25019;-78
2023/07/15 00:28:18;;;;;;;3.42;2.10;;;;;;;18.17;86.14;95452.78;5045679;28;24868;-78
2023/07/15 00:30:45;;;;;;;2.03;1.83;;;;;;;18.19;86.48;95458.72;5048094;28;24431;-78
2023/07/15 00:33:15;;;;;;;2.90;1.90;;;;;;;18.32;85.88;95467.84;5047416;28;24450;-77
2023/07/15 00:35:43;;;;;;;3.95;1.88;;;;;;;18.37;85.18;95462.97;5043925;28;24431;-78
2023/07/15 00:38:10;;;;;;;3.35;2.13;;;;;;;18.41;85.78;95466.09;5049123;28;24477;-78
2023/07/15 00:40:40;;;;;;;2.90;2.20;;;;;;;18.51;85.39;95469.47;5048462;28;24828;-78
2023/07/15 00:43:43;;;;;;;3.72;1.92;;;;;;;18.59;85.06;95464.28;5053315;28;24438;-78
2023/07/15 00:46:45;;;;;;;3.75;2.17;;;;;;;18.59;84.44;95464.28;5040086;28;24864;-78
2023/07/15 00:49:16;;;;;;;2.20;2.00;;;;;;;18.66;84.70;95463.69;5041564;28;24440;-78
2023/07/15 00:51:46;;;;;;;2.30;1.98;;;;;;;18.67;84.58;95457.44;5048409;28;24443;-78
2023/07/15 00:54:14;;;;;;;3.17;2.25;;;;;;;18.63;85.25;95463.00;5053348;28;24512;-78
2023/07/15 00:56:42;;;;;;;1.75;1.60;;;;;;;18.75;84.87;95462.78;5053144;28;24531;-78
2023/07/15 00:59:11;;;;;;;3.80;2.05;;;;;;;18.73;85.25;95468.19;5054307;28;24446;-78
2023/07/15 01:01:37;;;;;;;3.03;2.17;;;;;;;18.73;85.17;95470.00;5054189;28;24433;-79
2023/07/15 01:04:06;;;;;;;2.42;1.98;;;;;;;18.84;85.63;95465.31;5052805;28;24995;-77
2023/07/15 01:06:35;;;;;;;3.35;2.00;;;;;;;18.87;85.45;95466.78;5052823;28;25038;-78
2023/07/15 01:09:04;;;;;;;2.67;2.10;;;;;;;18.84;85.98;95467.94;5050556;28;24470;-78
2023/07/15 01:11:30;;;;;;;3.30;2.00;;;;;;;18.91;85.12;95470.78;5053909;28;24837;-78
2023/07/15 01:13:57;;;;;;;1.95;1.70;;;;;;;18.90;85.76;95468.28;5053419;28;25015;-78
2023/07/15 01:16:24;;;;;;;4.30;2.22;;;;;;;18.87;86.18;95469.41;5047766;28;24841;-79
2023/07/15 01:18:51;;;;;;;3.10;2.00;;;;;;;18.87;86.58;95472.03;5044419;28;25064;-78
2023/07/15 01:21:20;;;;;;;3.20;1.92;;;;;;;18.92;86.47;95468.97;5049747;28;24438;-78
2023/07/15 01:23:48;;;;;;;8.60;1.97;;;;;;;18.88;87.08;95472.88;5044907;28;24443;-79
2023/07/15 01:26:14;;;;;;;4.80;2.00;;;;;;;18.95;86.66;95472.09;5051484;28;24478;-78
2023/07/15 01:28:41;;;;;;;2.80;1.92;;;;;;;19.00;86.80;95463.75;5045162;28;24443;-78
2023/07/15 01:31:07;;;;;;;3.13;2.08;;;;;;;19.00;86.53;95461.13;5053060;28;24477;-77
2023/07/15 01:33:34;;;;;;;2.75;1.90;;;;;;;19.02;86.32;95467.03;5045736;28;24440;-77
2023/07/15 01:36:02;;;;;;;3.53;2.30;;;;;;;18.98;86.08;95461.28;5048747;28;24426;-78
2023/07/15 01:38:29;;;;;;;2.23;1.90;;;;;;;19.01;86.70;95468.84;5047970;28;24468;-78
2023/07/15 01:40:57;;;;;;;2.27;1.97;;;;;;;19.02;86.40;95467.03;5049272;28;24434;-77
2023/07/15 01:43:23;;;;;;;2.67;1.97;;;;;;;18.97;87.22;95464.88;5052046;28;24827;-79
2023/07/15 01:45:50;;;;;;;3.33;2.00;;;;;;;18.94;87.69;95469.63;5050353;28;24447;-77
2023/07/15 01:48:17;;;;;;;2.30;1.73;;;;;;;19.01;87.43;95468.03;5053826;28;25077;-79
2023/07/15 01:50:43;;;;;;;3.10;2.20;;;;;;;19.00;88.02;95461.13;5043492;28;24997;-79
2023/07/15 01:53:10;;;;;;;3.40;2.30;;;;;;;19.05;87.65;95461.47;5049558;28;24431;-78
2023/07/15 01:55:36;;;;;;;3.43;2.00;;;;;;;19.04;88.26;95465.09;5046099;28;24423;-77
2023/07/15 01:58:04;;;;;;;4.20;2.40;;;;;;;19.05;87.76;95454.41;5050886;28;24442;-79
2023/07/15 02:00:30;;;;;;;2.72;1.80;;;;;;;19.03;87.32;95450.34;5047619;28;24439;-78
2023/07/15 02:02:57;;;;;;;3.13;1.92;;;;;;;19.06;87.60;95450.84;5044413;28;24438;-78
2023/07/15 02:05:23;;;;;;;2.70;2.00;;;;;;;19.06;88.11;95456.09;5047429;28;24458;-77
2023/07/15 02:07:50;;;;;;;3.25;1.92;;;;;;;19.07;89.03;95451.66;5043828;28;24436;-78
2023/07/15 02:10:17;;;;;;;3.13;2.25;;;;;;;19.07;90.41;95455.09;5048425;28;24439;-77
2023/07/15 02:12:44;;;;;;;2.25;2.00;;;;;;;18.99;90.32;95444.56;5045292;28;24882;-78
2023/07/15 02:15:12;;;;;;;3.15;2.05;;;;;;;18.96;90.88;95454.56;5048962;28;24430;-77
2023/07/15 02:17:39;;;;;;;4.43;2.30;;;;;;;18.92;90.49;95453.22;5046547;28;25022;-78
2023/07/15 02:20:07;;;;;;;5.20;2.28;;;;;;;18.83;91.06;95449.72;5042550;28;24584;-77
2023/07/15 02:22:34;;;;;;;3.67;2.28;;;;;;;18.77;91.71;95456.41;5047766;28;24431;-78
2023/07/15 02:25:01;;;;;;;2.95;2.35;;;;;;;18.74;92.12;95448.03;5043958;28;24443;-77
2023/07/15 02:27:27;;;;;;;3.03;2.05;;;;;;;18.67;92.92;95442.53;5048321;28;24479;-78
2023/07/15 02:29:54;;;;;;;3.40;2.45;;;;;;;18.70;92.48;95452.72;5045605;28;24974;-78
2023/07/15 02:32:39;;;;;;;9.43;2.30;;;;;;;18.66;93.40;95450.56;5049554;28;24832;-78
2023/07/15 02:35:08;;;;;;;3.08;1.95;;;;;;;18.58;94.96;95439.03;5041168;28;24470;-77
2023/07/15 02:37:35;;;;;;;3.03;1.98;;;;;;;18.60;95.05;95438.88;5050365;28;24945;-79
2023/07/15 02:40:02;;;;;;;4.47;2.30;;;;;;;18.41;95.42;95431.19;5042305;28;24427;-78
2023/07/15 02:42:28;;;;;;;3.63;2.17;;;;;;;18.29;96.32;95439.31;5050052;28;24496;-78
2023/07/15 02:44:54;;;;;;;3.67;2.25;;;;;;;18.19;97.62;95437.75;5049159;28;24835;-78
2023/07/15 02:47:21;;;;;;;2.80;2.20;;;;;;;18.20;97.58;95431.53;5050254;28;24455;-78
2023/07/15 02:49:49;;;;;;;3.15;2.22;;;;;;;18.12;98.33;95433.09;5043569;28;24431;-78
2023/07/15 02:52:15;;;;;;;2.67;2.08;;;;;;;18.13;98.73;95433.91;5050245;28;24485;-79
2023/07/15 02:54:41;;;;;;;2.65;2.13;;;;;;;18.11;98.12;95428.03;5043406;28;24475;-77
2023/07/15 02:57:08;;;;;;;4.32;2.35;;;;;;;18.16;97.89;95427.56;5051183;28;24435;-78
2023/07/15 02:59:34;;;;;;;2.60;2.03;;;;;;;18.25;97.50;95421.44;5044144;28;24428;-78
2023/07/15 03:02:02;;;;;;;2.30;1.92;;;;;;;18.30;97.09;95430.47;5046397;28;24517;-78
2023/07/15 03:04:28;;;;;;;3.47;2.17;;;;;;;18.28;97.15;95424.56;5043922;28;24439;-77
2023/07/15 03:06:58;;;;;;;2.88;2.05;;;;;;;18.27;96.94;95433.38;5043789;28;24448;-78
2023/07/15 03:09:25;;;;;;;3.03;2.17;;;;;;;18.27;96.53;95427.31;5044059;28;24438;-79
2023/07/15 03:11:52;;;;;;;2.42;2.20;;;;;;;18.31;96.67;95426.03;5044283;28;24462;-79
2023/07/15 03:14:18;;;;;;;3.45;2.35;;;;;;;18.32;96.72;95422.47;5046144;28;24439;-78
2023/07/15 03:16:44;;;;;;;2.38;2.00;;;;;;;18.28;95.69;95424.56;5043891;28;24431;-78
2023/07/15 03:19:11;;;;;;;2.85;1.98;;;;;;;18.16;97.00;95427.56;5051897;28;24446;-78
2023/07/15 03:21:38;;;;;;;3.72;2.08;;;;;;;18.19;96.89;95428.06;5044901;28;24431;-78
2023/07/15 03:24:06;;;;;;;3.90;2.40;;;;;;;18.25;96.93;95424.88;5044949;28;24981;-79
2023/07/15 03:26:32;;;;;;;2.40;2.10;;;;;;;18.29;97.31;95425.38;5046876;28;24456;-77
2023/07/15 03:28:59;;;;;;;3.90;2.13;;;;;;;18.26;97.27;95423.88;5045038;28;24801;-79
2023/07/15 03:31:26;;;;;;;3.20;2.15;;;;;;;18.29;96.64;95417.53;5049497;28;24471;-78
2023/07/15 03:33:53;;;;;;;3.13;2.20;;;;;;;18.18;97.73;95423.81;5045571;28;24808;-78
2023/07/15 03:36:20;;;;;;;3.75;2.10;;;;;;;18.13;98.17;95416.41;5046427;28;24427;-78
2023/07/15 03:38:46;;;;;;;2.65;2.38;;;;;;;18.00;99.29;95410.72;5045629;28;24487;-78
2023/07/15 03:41:14;;;;;;;3.55;2.75;;;;;;;17.94;100.00;95418.34;5047216;28;24983;-79
2023/07/15 03:43:40;;;;;;;4.75;2.25;;;;;;;17.82;100.00;95415.97;5046998;28;24440;-77
2023/07/15 03:46:07;;;;;;;3.00;2.20;;;;;;;17.75;100.00;95414.91;5048493;28;25195;-78
2023/07/15 03:48:33;;;;;;;4.50;2.60;;;;;;;17.75;100.00;95416.69;5049075;28;24805;-78
2023/07/15 03:51:00;;;;;;;5.20;3.20;;;;;;;17.75;100.00;95414.91;5041657;28;24477;-78
2023/07/15 03:53:26;;;;;;;3.25;2.30;;;;;;;17.69;100.00;95409.41;5047102;28;24439;-79
2023/07/15 03:55:52;;;;;;;5.50;2.30;;;;;;;17.54;100.00;95409.09;5044013;28;24444;-77
2023/07/15 03:58:20;;;;;;;2.78;2.53;;;;;;;17.44;100.00;95411.78;5048300;28;24454;-79
2023/07/15 04:00:47;;;;;;;2.70;2.40;;;;;;;17.45;100.00;95410.81;5044164;28;24984;-78
2023/07/15 04:03:13;;;;;;;3.95;2.22;;;;;;;17.51;100.00;95409.41;5041611;28;24443;-79
2023/07/15 04:05:39;;;;;;;4.75;2.70;;;;;;;17.54;100.00;95411.72;5045572;28;24485;-78
2023/07/15 04:08:06;;;;;;;4.53;2.63;;;;;;;17.50;100.00;95407.75;5043097;28;24446;-77
2023/07/15 04:10:32;;;;;;;3.65;2.50;;;;;;;17.52;100.00;95404.00;5047743;28;24420;-77
2023/07/15 04:12:59;;;;;;;2.22;1.90;;;;;;;17.54;100.00;95403.84;5049595;28;24442;-78
2023/07/15 04:15:27;;;;;;;2.55;2.28;;;;;;;17.54;100.00;95396.84;5048049;28;25023;-78
2023/07/15 04:17:53;;;;;;;3.63;2.53;;;;;;;17.54;100.00;95401.22;5043015;28;24454;-78
2023/07/15 04:20:20;;;;;;;3.20;2.08;;;;;;;17.50;100.00;95392.88;5043793;28;24446;-79
2023/07/15 04:22:46;;;;;;;2.63;2.13;;;;;;;17.43;100.00;95389.22;5046213;28;24443;-77
2023/07/15 04:25:14;;;;;;;2.67;2.35;;;;;;;17.47;100.00;95390.56;5043626;28;24454;-77
2023/07/15 04:27:41;;;;;;;7.30;2.33;;;;;;;17.45;100.00;95395.09;5046779;28;25109;-78
2023/07/15 04:30:10;;;;;;;3.45;2.35;;;;;;;17.41;100.00;95391.94;5044972;28;24431;-79
2023/07/15 04:32:38;;;;;;;2.35;2.15;;;;;;;17.37;100.00;95393.22;5044784;28;24442;-77
2023/07/15 04:35:05;;;;;;;2.60;2.25;;;;;;;17.33;100.00;95391.88;5040167;28;25040;-79
2023/07/15 04:37:32;;;;;;;4.03;2.20;;;;;;;17.45;100.00;95400.34;5048486;28;24836;-79
2023/07/15 04:39:58;;;;;;;3.22;2.55;;;;;;;17.48;100.00;95396.59;5045343;28;24435;-79
2023/07/15 04:42:24;;;;;;;3.78;2.58;;;;;;;17.55;100.00;95402.91;5048153;28;24432;-77
2023/07/15 04:44:51;;;;;;;3.63;2.20;;;;;;;17.57;100.00;95407.00;5047445;28;24492;-77
2023/07/15 04:47:17;;;;;;;3.60;2.30;;;;;;;17.64;100.00;95402.00;5047973;28;24805;-78
2023/07/15 04:49:45;;;;;;;3.58;2.38;;;;;;;17.67;100.00;95409.56;5049482;28;24436;-78
2023/07/15 04:52:12;;;;;;;4.10;2.38;;;;;;;17.60;100.00;95411.13;5047881;28;24796;-78
2023/07/15 04:54:38;;;;;;;3.70;2.40;;;;;;;17.75;100.00;95412.28;5040696;28;24964;-78
2023/07/15 04:57:05;;;;;;;3.28;2.40;;;;;;;17.82;100.00;95407.28;5050872;28;24427;-78
2023/07/15 04:59:32;;;;;;;2.70;2.20;;;;;;;17.89;100.00;95413.56;5042957;28;24428;-78
2023/07/15 05:01:58;;;;;;;3.70;2.40;;;;;;;17.87;100.00;95412.88;5035716;28;24462;-78
2023/07/15 05:04:25;;;;;;;3.17;2.35;;;;;;;17.97;100.00;95413.63;5041782;28;24436;-78
2023/07/15 05:06:53;;;;;;;3.70;2.00;;;;;;;18.18;100.00;95415.97;5040342;28;25159;-78
2023/07/15 05:09:19;;;;;;;2.90;2.15;;;;;;;18.27;100.00;95416.84;5046659;28;24431;-77
2023/07/15 05:11:46;;;;;;;4.07;2.43;;;;;;;18.30;100.00;95419.97;5032715;28;25062;-77
2023/07/15 05:14:12;;;;;;;3.47;2.20;;;;;;;18.36;100.00;95429.03;5044630;28;24435;-77
2023/07/15 05:16:43;;;;;;;3.95;2.40;;;;;;;18.35;100.00;95422.97;5035797;28;24821;-79
2023/07/15 05:19:10;;;;;;;2.95;2.40;;;;;;;18.38;100.00;95427.06;5046611;28;24434;-77
2023/07/15 05:21:36;;;;;;;5.82;2.30;;;;;;;18.45;100.00;95425.50;5041336;28;24436;-77
2023/07/15 05:24:04;;;;;;;3.27;2.60;;;;;;;18.66;100.00;95426.97;5037378;28;24439;-78
2023/07/15 05:26:31;;;;;;;3.78;2.17;;;;;;;18.83;98.53;95419.03;5048564;28;24456;-78
2023/07/15 05:28:57;;;;;;;4.40;2.10;;;;;;;18.90;98.60;95411.38;5046491;28;24458;-78
2023/07/15 05:31:24;;;;;;;6.38;2.28;;;;;;;19.10;97.18;95407.56;5051535;28;24987;-78
2023/07/15 05:33:50;;;;;;;3.20;2.38;;;;;;;19.31;96.67;95403.69;5046411;28;24439;-77
2023/07/15 05:36:17;;;;;;;4.07;2.20;;;;;;;19.57;95.86;95409.66;5045728;28;24434;-77
2023/07/15 05:38:44;;;;;;;3.15;2.05;;;;;;;19.78;92.90;95403.19;5047188;28;24431;-78
2023/07/15 05:41:12;;;;;;;3.92;2.40;;;;;;;20.01;90.92;95406.81;5034923;28;24837;-77
2023/07/15 05:43:39;;;;;;;4.25;2.10;;;;;;;20.13;89.36;95409.13;5045023;28;24431;-78
2023/07/15 05:46:05;;;;;;;4.30;2.22;;;;;;;20.22;88.49;95406.34;5042091;28;24469;-77
2023/07/15 05:48:32;;;;;;;2.20;1.92;;;;;;;20.31;87.18;95402.72;5050797;28;24451;-78
2023/07/15 05:50:58;;;;;;;3.75;2.20;;;;;;;20.51;85.14;95402.41;5051879;28;24470;-78
2023/07/15 05:53:25;;;;;;;12.03;2.30;;;;;;;20.70;82.29;95396.78;5049921;28;24786;-77
2023/07/15 05:55:51;;;;;;;2.42;1.92;;;;;;;20.92;79.91;95397.06;5045327;28;24450;-76
2023/07/15 05:58:19;;;;;;;3.00;2.40;;;;;;;21.14;79.32;95398.97;5048932;28;24431;-75
2023/07/15 06:00:47;;;;;;;2.33;1.95;;;;;;;21.56;77.67;95391.72;5045589;28;24438;-76
2023/07/15 06:03:13;;;;;;;3.63;2.30;;;;;;;21.64;76.62;95389.84;5042802;28;24436;-76
2023/07/15 06:05:39;;;;;;;2.28;2.00;;;;;;;21.70;75.33;95391.00;5047141;28;24833;-77
2023/07/15 06:08:07;;;;;;;4.50;2.38;;;;;;;21.93;77.59;95383.09;5045461;28;25020;-76
2023/07/15 06:10:33;;;;;;;2.45;1.90;;;;;;;21.92;74.79;95386.72;5052028;28;24446;-75
2023/07/15 06:13:00;;;;;;;2.95;2.30;;;;;;;22.09;73.59;95390.03;5047346;28;24442;-76
2023/07/15 06:15:28;;;;;;;3.28;1.75;;;;;;;22.16;73.01;95391.84;5047190;28;24442;-76
2023/07/15 06:17:55;;;;;;;3.38;2.17;;;;;;;22.10;73.05;95384.63;5047225;28;24443;-76
2023/07/15 06:20:22;;;;;;;3.78;2.30;;;;;;;22.05;73.46;95389.59;5051753;28;24853;-77
2023/07/15 06:22:48;;;;;;;3.25;2.15;;;;;;;21.88;74.68;95388.06;5049102;28;24438;-78
2023/07/15 06:25:16;;;;;;;2.72;2.03;;;;;;;21.74;75.23;95387.00;5043127;28;24493;-75
2023/07/15 06:27:42;;;;;;;2.30;2.05;;;;;;;21.65;76.81;95385.41;5047051;28;25022;-77
2023/07/15 06:30:10;;;;;;;3.25;2.20;;;;;;;21.79;76.33;95376.75;5045284;28;24789;-77
2023/07/15 06:32:37;;;;;;;3.15;2.17;;;;;;;22.07;75.63;95376.22;5052028;28;24442;-75
2023/07/15 06:35:04;;;;;;;8.95;2.20;;;;;;;22.21;75.84;95375.47;5050267;28;24434;-77
2023/07/15 06:37:31;;;;;;;4.35;2.22;;;;;;;22.48;74.07;95376.72;5050587;28;24481;-77
2023/07/15 06:39:57;;;;;;;3.17;2.20;;;;;;;22.54;73.72;95368.06;5045146;28;24451;-77
2023/07/15 06:42:23;;;;;;;2.60;1.75;;;;;;;22.72;73.27;95373.03;5045208;28;24454;-77
2023/07/15 06:44:50;;;;;;;4.68;2.28;;;;;;;22.79;72.46;95367.84;5051768;28;24943;-77
2023/07/15 06:47:16;;;;;;;3.42;2.45;;;;;;;22.97;72.01;95360.41;5045166;28;25012;-76
2023/07/15 06:49:44;;;;;;;3.15;2.35;;;;;;;23.17;70.87;95379.16;5048668;28;24430;-76
2023/07/15 06:52:10;;;;;;;2.63;2.30;;;;;;;23.34;70.32;95371.84;5049229;28;24485;-76
2023/07/15 06:54:37;;;;;;;3.70;2.60;;;;;;;23.53;70.01;95381.81;5042126;28;24431;-75
2023/07/15 06:57:04;;;;;;;3.95;2.50;;;;;;;23.65;69.75;95377.69;5050920;28;24473;-77
2023/07/15 06:59:30;;;;;;;6.72;2.92;;;;;;;23.82;69.10;95380.97;5045464;28;24459;-77
2023/07/15 07:01:57;;;;;;;6.13;3.55;;;;;;;23.95;68.71;95388.19;5043660;28;24832;-77
2023/07/15 07:04:23;;;;;;;6.35;3.05;;;;;;;24.11;67.96;95392.44;5046402;28;24440;-77
2023/07/15 07:06:51;;;;;;;4.13;3.28;;;;;;;24.42;67.16;95392.13;5044413;28;24432;-77
2023/07/15 07:09:18;;;;;;;5.80;3.40;;;;;;;24.50;66.90;95388.50;5051517;28;24439;-77
2023/07/15 07:11:44;;;;;;;5.70;3.30;;;;;;;24.59;66.21;95392.69;5046654;28;24837;-77
2023/07/15 07:14:10;;;;;;;6.10;3.03;;;;;;;24.78;65.38;95399.94;5056210;28;24451;-79
2023/07/15 07:16:37;;;;;;;5.93;2.78;;;;;;;24.97;64.43;95387.00;5043668;28;25220;-78
2023/07/15 07:19:03;;;;;;;4.13;2.70;;;;;;;25.21;63.60;95388.38;5052646;28;24420;-79
2023/07/15 07:21:30;;;;;;;5.03;2.78;;;;;;;25.50;61.10;95388.09;5050389;28;24972;-78
2023/07/15 07:23:58;;;;;;;4.05;2.47;;;;;;;25.87;61.61;95386.00;5046367;28;25086;-78
2023/07/15 07:26:24;;;;;;;5.90;2.80;;;;;;;25.90;62.98;95387.47;5051210;28;24442;-79
2023/07/15 07:28:51;;;;;;;4.00;2.25;;;;;;;25.83;61.15;95388.25;5045027;28;24455;-79
2023/07/15 07:31:18;;;;;;;3.10;2.30;;;;;;;25.96;59.18;95390.13;5047374;28;24444;-79
2023/07/15 07:33:45;;;;;;;3.10;2.40;;;;;;;25.83;58.62;95385.59;5046759;28;24815;-79
2023/07/15 07:36:12;;;;;;;3.13;2.63;;;;;;;25.82;58.00;95383.16;5045120;28;24438;-79
2023/07/15 07:38:38;;;;;;;8.32;3.22;;;;;;;25.94;58.35;95380.72;5045974;28;24435;-78
2023/07/15 07:41:08;;;;;;;9.00;2.58;;;;;;;26.03;56.28;95382.16;5054072;28;24987;-79
2023/07/15 07:43:35;;;;;;;5.15;2.60;;;;;;;26.06;57.11;95376.44;5047667;28;24446;-78
2023/07/15 07:46:02;;;;;;;4.03;2.80;;;;;;;26.11;58.28;95375.88;5052195;28;24464;-79
2023/07/15 07:48:28;;;;;;;3.05;2.25;;;;;;;26.09;56.98;95373.41;5048317;28;24462;-76
2023/07/15 07:50:55;;;;;;;4.30;2.10;;;;;;;26.11;55.11;95375.88;5042140;28;24431;-77
2023/07/15 07:53:22;;;;;;;4.05;1.90;;;;;;;26.22;56.23;95373.44;5039237;28;24985;-77
2023/07/15 07:55:48;;;;;;;4.82;2.33;;;;;;;26.23;55.19;95376.91;5042221;28;24965;-77
2023/07/15 07:58:16;;;;;;;5.85;2.33;;;;;;;26.36;54.83;95373.41;5048949;28;24427;-77
2023/07/15 08:00:43;;;;;;;6.78;1.98;;;;;;;26.34;55.06;95370.16;5047620;28;24434;-78
2023/07/15 08:03:10;;;;;;;3.63;1.90;;;;;;;26.30;53.99;95375.88;5041072;28;24836;-78
2023/07/15 08:05:41;;;;;;;2.80;2.20;;;;;;;26.30;54.58;95381.19;5045532;28;24439;-77
2023/07/15 08:08:08;;;;;;;3.38;1.95;;;;;;;26.39;52.91;95383.63;5049986;28;24474;-78
2023/07/15 08:10:37;;;;;;;3.08;1.98;;;;;;;26.39;55.34;95388.94;5053260;28;24435;-78
2023/07/15 08:13:05;;;;;;;3.10;2.20;;;;;;;26.60;53.25;95391.44;5047446;28;24466;-77
2023/07/15 08:15:35;;;;;;;3.75;2.35;;;;;;;26.57;52.57;95391.84;5061812;28;24427;-78
2023/07/15 08:18:02;;;;;;;4.35;1.98;;;;;;;26.61;54.08;95393.06;5067113;28;24451;-77
2023/07/15 08:20:30;;;;;;;4.40;2.28;;;;;;;26.78;52.84;95385.50;5049759;28;24455;-78
2023/07/15 08:22:57;;;;;;;2.92;2.00;;;;;;;27.31;53.16;95380.06;5045634;28;24443;-78
2023/07/15 08:25:24;;;;;;;18.30;2.30;;;;;;;27.72;50.91;95382.34;5049904;28;25002;-78
2023/07/15 08:27:51;;;;;;;6.18;2.20;;;;;;;28.16;50.63;95385.22;5050297;28;24477;-78
2023/07/15 08:30:18;;;;;;;2.60;1.93;;;;;;;28.23;47.93;95388.66;5044489;28;24435;-78
2023/07/15 08:32:46;;;;;;;3.80;2.10;;;;;;;28.15;48.50;95394.25;5047534;28;24828;-78
2023/07/15 08:35:12;;;;;;;3.65;2.47;;;;;;;28.02;48.54;95387.13;5041040;28;24789;-78
2023/07/15 08:37:38;;;;;;;4.15;2.33;;;;;;;28.01;48.21;95385.50;5050382;28;24789;-78
2023/07/15 08:40:10;;;;;;;3.90;2.00;;;;;;;27.98;49.19;95381.41;5043355;28;25178;-78
2023/07/15 08:42:37;;;;;;;2.30;1.67;;;;;;;27.95;49.45;95376.53;5049641;28;25032;-78
2023/07/15 08:45:04;;;;;;;4.30;2.20;;;;;;;28.12;48.05;95362.72;5049789;28;24435;-78
2023/07/15 08:47:31;;;;;;;4.07;1.87;;;;;;;28.63;44.01;95364.41;5048372;28;24459;-79
2023/07/15 08:50:05;;;;;;;6.65;2.08;;;;;;;28.80;44.64;95360.13;5050554;28;25562;-78
2023/07/15 08:52:31;;;;;;;4.80;1.80;;;;;;;29.07;43.38;95365.19;5044194;28;24443;-77
2023/07/15 08:55:00;;;;;;;2.30;1.70;;;;;;;29.37;42.92;95376.78;5048891;28;24489;-77
2023/07/15 08:57:26;;;;;;;2.30;1.97;;;;;;;29.57;42.40;95378.38;5046287;28;24428;-77
2023/07/15 08:59:54;;;;;;;2.75;2.00;;;;;;;29.79;41.71;95374.22;5049828;28;24434;-77
2023/07/15 09:02:21;;;;;;;2.83;1.77;;;;;;;29.94;41.36;95367.69;5039388;28;24531;-77
2023/07/15 09:04:47;;;;;;;5.13;2.00;;;;;;;30.23;40.61;95366.06;5053226;28;24975;-77
2023/07/15 09:07:15;;;;;;;5.32;2.20;;;;;;;30.47;41.24;95370.38;5046627;28;24454;-77
2023/07/15 09:09:43;;;;;;;2.80;1.97;;;;;;;30.70;40.03;95363.41;5049543;28;24523;-77
2023/07/15 09:12:11;;;;;;;4.68;2.28;;;;;;;30.96;40.07;95362.97;5052398;28;24439;-77
2023/07/15 09:14:43;;;;;;;3.03;2.05;;;;;;;31.27;38.44;95369.00;5045518;28;24489;-77
2023/07/15 09:17:16;;;;;;;3.47;2.08;;;;;;;31.51;38.05;95365.25;5040158;28;24451;-77
2023/07/15 09:19:45;;;;;;;5.35;2.17;;;;;;;31.49;36.21;95359.31;5042511;28;24424;-77
2023/07/15 09:22:11;;;;;;;3.80;2.20;;;;;;;31.63;36.18;95356.34;5049571;28;24810;-77
2023/07/15 09:24:40;;;;;;;2.93;1.73;;;;;;;32.05;35.28;95359.59;5049478;28;24443;-77
2023/07/15 09:27:07;;;;;;;3.70;1.90;;;;;;;32.23;35.21;95356.72;5042182;28;24427;-77
2023/07/15 09:29:34;;;;;;;5.10;1.80;;;;;;;32.08;34.03;95356.44;5046050;28;24894;-78
2023/07/15 09:32:01;;;;;;;3.38;2.20;;;;;;;32.35;33.90;95353.94;5048814;28;24973;-77
2023/07/15 09:34:27;;;;;;;3.63;2.13;;;;;;;32.60;35.23;95364.31;5048661;28;24439;-78
2023/07/15 09:36:55;;;;;;;1.98;1.63;;;;;;;32.67;33.84;95361.44;5044081;28;24442;-78
2023/07/15 09:39:23;;;;;;;2.22;1.75;;;;;;;32.39;33.78;95357.78;5050564;28;24508;-78
2023/07/15 09:42:01;;;;;;;4.15;1.92;;;;;;;31.73;34.13;95354.69;5049853;28;24439;-78
2023/07/15 09:44:36;;;;;;;7.63;2.83;;;;;;;31.33;35.35;95354.69;5044541;28;24489;-78
2023/07/15 09:47:03;;;;;;;6.18;2.10;;;;;;;30.99;34.79;95353.69;5052200;28;24424;-78
2023/07/15 09:49:30;;;;;;;2.80;1.85;;;;;;;30.82;35.82;95353.59;5045908;28;24487;-78
2023/07/15 09:51:58;;;;;;;2.15;1.80;;;;;;;30.72;35.25;95350.66;5051951;28;24428;-79
2023/07/15 09:54:26;;;;;;;2.50;2.00;;;;;;;30.64;35.53;95353.69;5047683;28;24442;-78
2023/07/15 09:56:57;;;;;;;4.07;1.80;;;;;;;30.96;34.61;95343.44;5047515;28;24439;-78
2023/07/15 09:59:28;;;;;;;2.28;1.58;;;;;;;31.30;34.17;95344.47;5047913;28;24830;-78
2023/07/15 10:01:57;;;;;;;2.70;2.20;;;;;;;31.49;33.91;95345.94;5045554;28;24549;-79
2023/07/15 10:04:31;;;;;;;2.17;1.77;;;;;;;31.88;34.16;95338.13;5043274;28;24448;-78
2023/07/15 10:06:58;;;;;;;2.65;1.70;;;;;;;31.98;33.02;95349.03;5053175;28;24439;-78
2023/07/15 10:09:25;;;;;;;4.68;1.90;;;;;;;31.79;32.29;95344.91;5052476;28;24458;-78
2023/07/15 10:11:52;;;;;;;2.72;1.90;;;;;;;31.66;32.45;95346.00;5041354;28;24518;-78
2023/07/15 10:14:20;;;;;;;2.20;1.63;;;;;;;31.43;32.67;95354.09;5039923;28;24528;-77
2023/07/15 10:17:07;;;;;;;2.95;2.25;;;;;;;31.14;33.45;95354.00;5052484;28;25250;-78
2023/07/15 10:19:44;;;;;;;2.70;1.98;;;;;;;31.22;34.31;95347.47;5042696;28;24434;-78
2023/07/15 10:22:11;;;;;;;2.40;1.70;;;;;;;31.38;32.91;95351.34;5045494;28;24442;-78
2023/07/15 10:24:41;;;;;;;2.95;1.80;;;;;;;31.60;32.99;95338.13;5044825;28;24434;-78
2023/07/15 10:27:10;;;;;;;2.57;1.70;;;;;;;31.70;34.51;95340.97;5052047;28;24435;-78
2023/07/15 10:29:38;;;;;;;2.85;1.90;;;;;;;31.99;33.84;95342.63;5046872;28;24849;-77
2023/07/15 10:32:10;;;;;;;4.00;2.10;;;;;;;32.27;32.84;95336.41;5047340;28;24493;-78
2023/07/15 10:34:37;;;;;;;2.65;1.77;;;;;;;32.34;32.62;95341.63;5049708;28;24432;-77
2023/07/15 10:37:09;;;;;;;2.25;1.70;;;;;;;32.52;32.27;95345.94;5047892;28;24439;-78
2023/07/15 10:39:36;;;;;;;3.30;1.83;;;;;;;32.67;31.26;95340.00;5051605;28;24443;-77
2023/07/15 10:42:09;;;;;;;2.53;2.00;;;;;;;32.90;31.86;95339.00;5049189;28;24524;-78
2023/07/15 10:44:40;;;;;;;2.47;1.67;;;;;;;32.92;31.84;95340.38;5050749;28;24442;-78
2023/07/15 10:47:07;;;;;;;4.30;1.90;;;;;;;32.81;32.02;95337.78;5049965;28;24984;-78
2023/07/15 10:49:35;;;;;;;2.30;1.52;;;;;;;32.95;30.18;95342.59;5040476;28;24452;-78
2023/07/15 10:52:03;;;;;;;1.85;1.63;;;;;;;32.83;31.38;95343.72;5051151;28;24458;-77
2023/07/15 10:54:31;;;;;;;2.60;1.70;;;;;;;32.81;31.17;95346.63;5056007;28;24438;-78
2023/07/15 10:56:58;;;;;;;2.70;1.90;;;;;;;32.99;30.96;95337.53;5058344;28;24442;-77
2023/07/15 10:59:25;;;;;;;2.67;1.70;;;;;;;32.71;30.87;95335.78;5053359;28;24463;-77
2023/07/15 11:01:51;;;;;;;4.28;1.88;;;;;;;32.13;32.01;95335.09;5047030;28;24861;-77
2023/07/15 11:04:20;;;;;;;3.45;1.60;;;;;;;32.34;31.07;95336.25;5047250;28;24458;-77
2023/07/15 11:06:48;;;;;;;3.53;2.00;;;;;;;32.55;36.21;95331.22;5041601;28;25053;-78
2023/07/15 11:09:19;;;;;;;3.58;2.00;;;;;;;32.26;38.53;95304.47;5049678;28;24451;-77
2023/07/15 11:11:45;;;;;;;3.42;2.15;;;;;;;32.67;37.42;95323.91;5048983;28;24885;-77
2023/07/15 11:14:22;;;;;;;3.28;2.00;;;;;;;32.62;37.66;95321.97;5049795;28;24450;-77
2023/07/15 11:16:51;;;;;;;4.10;1.90;;;;;;;32.21;39.45;95307.91;5048957;28;24434;-78
2023/07/15 11:19:17;;;;;;;4.60;2.15;;;;;;;32.35;39.05;95315.63;5050711;28;24434;-78
2023/07/15 11:21:45;;;;;;;3.45;2.20;;;;;;;32.23;38.59;95315.72;5047281;28;24443;-78
2023/07/15 11:24:13;;;;;;;4.22;2.47;;;;;;;31.71;40.38;95313.97;5039701;28;24854;-78
2023/07/15 11:26:40;;;;;;;5.38;2.38;;;;;;;31.05;42.87;95308.09;5046797;28;24439;-78
2023/07/15 11:29:18;;;;;;;4.95;2.17;;;;;;;30.07;43.44;95309.56;5043077;28;25038;-78
2023/07/15 11:31:46;;;;;;;3.58;2.08;;;;;;;29.93;44.18;95302.78;5039689;28;24442;-77
2023/07/15 11:34:13;;;;;;;6.68;2.40;;;;;;;29.99;44.52;95301.03;5039363;28;24837;-78